createdAt,value
2023-05-08T00:00:06.745Z,7.22
2023-05-08T00:02:37.129Z,7.70
2023-05-08T00:05:06.955Z,7.28
2023-05-08T00:07:35.681Z,8.60
2023-05-08T00:10:04.768Z,7.63
2023-05-08T00:12:33.740Z,7.38
2023-05-08T00:15:02.910Z,7.63
2023-05-08T00:17:31.876Z,7.97
2023-05-08T00:20:03.060Z,8.18
2023-05-08T00:22:31.555Z,8.32
2023-05-08T00:25:00.443Z,8.38
2023-05-08T00:27:29.394Z,8.27
2023-05-08T00:29:58.705Z,8.40
2023-05-08T00:32:27.806Z,8.20
2023-05-08T00:34:56.466Z,7.70
2023-05-08T00:37:27.127Z,7.95
2023-05-08T00:39:56.108Z,7.85
2023-05-08T00:42:24.968Z,7.97
2023-05-08T00:44:54.081Z,7.50
2023-05-08T00:47:23.633Z,7.53
2023-05-08T00:49:52.292Z,8.48
2023-05-08T00:52:21.777Z,7.78
2023-05-08T00:54:52.251Z,8.60
2023-05-08T00:59:51.680Z,8.48
2023-05-08T01:02:21.093Z,8.18
2023-05-08T01:04:50.160Z,8.48
2023-05-08T01:07:19.633Z,8.23
2023-05-08T01:09:48.462Z,6.47
2023-05-08T01:12:22.793Z,8.80
2023-05-08T01:15:01.310Z,8.55
2023-05-08T01:17:39.929Z,9.35
2023-05-08T01:20:19.620Z,8.40
2023-05-08T01:23:30.187Z,8.77
2023-05-08T01:26:19.069Z,9.27
2023-05-08T01:29:17.537Z,9.25
2023-05-08T01:32:03.607Z,9.70
2023-05-08T01:34:33.967Z,9.27
2023-05-08T01:39:38.400Z,9.95
2023-05-08T01:42:19.944Z,9.65
2023-05-08T01:45:05.779Z,10.10
2023-05-08T01:47:38.803Z,10.48
2023-05-08T01:50:14.188Z,9.48
2023-05-08T01:52:47.073Z,9.50
2023-05-08T01:55:21.897Z,9.75
2023-05-08T01:57:53.150Z,10.02
2023-05-08T02:00:23.706Z,10.43
2023-05-08T02:02:54.979Z,9.40
2023-05-08T02:05:25.207Z,9.32
2023-05-08T02:07:54.846Z,10.02
2023-05-08T02:10:26.009Z,11.00
2023-05-08T02:12:56.109Z,10.93
2023-05-08T02:17:55.971Z,11.05
2023-05-08T02:20:24.878Z,11.80
2023-05-08T02:22:53.832Z,11.07
2023-05-08T02:25:23.713Z,10.77
2023-05-08T02:27:55.089Z,9.68
2023-05-08T02:30:26.375Z,8.77
2023-05-08T02:33:00.291Z,10.60
2023-05-08T02:35:31.629Z,10.27
2023-05-08T02:38:00.910Z,9.00
2023-05-08T02:40:30.923Z,8.65
2023-05-08T02:43:00.235Z,8.60
2023-05-08T02:45:34.655Z,8.40
2023-05-08T02:48:12.147Z,9.18
2023-05-08T02:50:47.197Z,7.75
2023-05-08T02:53:22.034Z,7.60
2023-05-08T02:55:52.220Z,8.48
2023-05-08T02:58:26.121Z,8.13
2023-05-08T03:00:59.566Z,7.78
2023-05-08T03:03:35.580Z,7.60
2023-05-08T03:06:05.321Z,7.97
2023-05-08T03:08:35.995Z,8.43
2023-05-08T03:11:09.488Z,8.88
2023-05-08T03:13:40.457Z,8.07
2023-05-08T03:16:13.592Z,13.05
2023-05-08T03:18:48.861Z,11.05
2023-05-08T03:21:19.920Z,8.43
2023-05-08T03:23:49.879Z,9.30
2023-05-08T03:26:21.366Z,9.05
2023-05-08T03:28:51.882Z,9.25
2023-05-08T03:31:23.917Z,9.27
2023-05-08T03:33:56.137Z,9.63
2023-05-08T03:36:27.196Z,9.38
2023-05-08T03:38:56.822Z,9.10
2023-05-08T03:41:27.005Z,8.68
2023-05-08T03:43:56.698Z,8.07
2023-05-08T03:46:25.914Z,9.20
2023-05-08T03:48:56.432Z,8.57
2023-05-08T03:51:25.517Z,8.45
2023-05-08T03:53:54.439Z,8.18
2023-05-08T03:56:25.857Z,8.40
2023-05-08T03:58:58.550Z,8.80
2023-05-08T04:01:31.135Z,9.07
2023-05-08T04:04:07.972Z,17.38
2023-05-08T04:06:49.533Z,19.40
2023-05-08T04:09:27.863Z,17.55
2023-05-08T04:12:03.934Z,13.05
2023-05-08T04:14:39.083Z,10.48
2023-05-08T04:17:11.339Z,9.18
2023-05-08T04:19:47.703Z,10.30
2023-05-08T04:22:16.808Z,8.80
2023-05-08T04:24:47.127Z,9.55
2023-05-08T04:29:44.784Z,8.32
2023-05-08T04:32:14.095Z,7.68
2023-05-08T04:34:44.592Z,9.27
2023-05-08T04:39:52.488Z,7.90
2023-05-08T04:42:22.709Z,8.07
2023-05-08T04:44:51.756Z,8.00
2023-05-08T04:47:21.182Z,8.93
2023-05-08T04:49:51.326Z,8.88
2023-05-08T04:54:48.848Z,7.88
2023-05-08T04:57:17.938Z,8.02
2023-05-08T04:59:47.031Z,7.18
2023-05-08T05:02:16.375Z,5.35
2023-05-08T05:04:45.119Z,5.13
2023-05-08T05:07:15.645Z,5.13
2023-05-08T05:09:44.630Z,4.38
2023-05-08T05:12:13.597Z,3.90
2023-05-08T05:14:42.729Z,4.13
2023-05-08T05:17:11.775Z,3.45
2023-05-08T05:19:40.482Z,2.88
2023-05-08T05:22:09.664Z,2.63
2023-05-08T05:24:41.083Z,3.05
2023-05-08T05:27:11.745Z,2.30
2023-05-08T05:29:40.973Z,2.72
2023-05-08T05:32:11.853Z,3.78
2023-05-08T05:34:41.933Z,2.80
2023-05-08T05:37:11.363Z,3.53
2023-05-08T05:39:41.797Z,2.50
2023-05-08T05:42:13.547Z,2.72
2023-05-08T05:44:43.030Z,2.67
2023-05-08T05:47:12.098Z,2.60
2023-05-08T05:49:43.226Z,2.50
2023-05-08T05:52:12.805Z,2.63
2023-05-08T05:54:43.244Z,2.60
2023-05-08T05:57:13.318Z,2.25
2023-05-08T05:59:42.685Z,2.20
2023-05-08T06:02:16.612Z,2.30
2023-05-08T06:04:45.626Z,3.15
2023-05-08T06:07:14.811Z,2.10
2023-05-08T06:09:45.448Z,2.72
2023-05-08T06:12:14.456Z,2.70
2023-05-08T06:14:43.437Z,2.60
2023-05-08T06:17:12.431Z,2.70
2023-05-08T06:19:41.348Z,2.63
2023-05-08T06:22:10.317Z,3.05
2023-05-08T06:24:39.365Z,2.70
2023-05-08T06:27:09.632Z,2.33
2023-05-08T06:29:38.601Z,2.70
2023-05-08T06:32:07.894Z,3.10
2023-05-08T06:34:36.421Z,2.50
2023-05-08T06:37:05.404Z,2.75
2023-05-08T06:39:34.364Z,2.05
2023-05-08T06:42:03.712Z,2.35
2023-05-08T06:44:34.669Z,2.70
2023-05-08T06:49:32.260Z,2.55
2023-05-08T06:52:01.347Z,2.60
2023-05-08T06:54:30.224Z,2.22
2023-05-08T06:57:00.603Z,2.58
2023-05-08T06:59:29.622Z,3.45
2023-05-08T07:01:59.965Z,3.05
2023-05-08T07:04:29.612Z,3.40
2023-05-08T07:07:00.603Z,2.80
2023-05-08T07:09:29.833Z,2.70
2023-05-08T07:11:58.680Z,2.78
2023-05-08T07:14:28.086Z,2.72
2023-05-08T07:16:56.616Z,2.80
2023-05-08T07:19:26.963Z,2.78
2023-05-08T07:24:25.093Z,3.20
2023-05-08T07:26:54.105Z,2.88
2023-05-08T07:29:23.123Z,3.10
2023-05-08T07:31:52.217Z,3.08
2023-05-08T07:34:21.258Z,3.15
2023-05-08T07:36:53.958Z,3.10
2023-05-08T07:39:22.891Z,3.20
2023-05-08T07:41:51.894Z,3.03
2023-05-08T07:44:21.676Z,2.83
2023-05-08T07:46:50.336Z,3.00
2023-05-08T07:49:19.354Z,3.22
2023-05-08T07:51:48.289Z,3.78
2023-05-08T07:54:18.685Z,3.42
2023-05-08T07:59:20.325Z,2.80
2023-05-08T08:01:52.988Z,2.85
2023-05-08T08:04:22.096Z,2.80
2023-05-08T08:06:50.986Z,2.80
2023-05-08T08:09:22.396Z,3.33
2023-05-08T08:14:20.031Z,2.88
2023-05-08T08:16:48.618Z,2.15
2023-05-08T08:19:17.621Z,2.38
2023-05-08T08:21:47.494Z,2.80
2023-05-08T08:24:16.428Z,3.33
2023-05-08T08:26:46.814Z,2.65
2023-05-08T08:29:15.721Z,2.53
2023-05-08T08:31:44.249Z,2.67
2023-05-08T08:34:13.727Z,2.80
2023-05-08T08:36:42.630Z,2.75
2023-05-08T08:39:13.429Z,2.55
2023-05-08T08:41:43.610Z,3.08
2023-05-08T08:44:14.047Z,2.40
2023-05-08T08:46:51.838Z,3.35
2023-05-08T08:49:23.940Z,2.67
2023-05-08T08:51:55.074Z,2.80
2023-05-08T08:54:25.771Z,3.03
2023-05-08T08:56:55.240Z,2.60
2023-05-08T08:59:26.887Z,3.03
2023-05-08T09:01:58.017Z,2.80
2023-05-08T09:04:27.637Z,2.58
2023-05-08T09:06:58.290Z,3.20
2023-05-08T09:09:28.920Z,11.98
2023-05-08T09:11:58.012Z,2.63
2023-05-08T09:14:28.706Z,2.90
2023-05-08T09:19:29.020Z,2.30
2023-05-08T09:22:00.932Z,3.00
2023-05-08T09:24:57.936Z,2.40
2023-05-08T09:27:28.350Z,2.35
2023-05-08T09:32:32.558Z,2.92
2023-05-08T09:35:02.159Z,2.97
2023-05-08T09:37:31.552Z,2.87
2023-05-08T09:40:17.252Z,2.42
2023-05-08T09:42:46.381Z,2.55
2023-05-08T09:45:28.579Z,2.30
2023-05-08T09:47:57.717Z,2.50
2023-05-08T09:50:27.837Z,2.13
2023-05-08T09:52:56.860Z,2.00
2023-05-08T09:55:25.877Z,2.70
2023-05-08T09:57:57.326Z,2.00
2023-05-08T10:00:31.236Z,2.00
2023-05-08T10:03:02.272Z,2.20
2023-05-08T10:05:33.104Z,2.50
2023-05-08T10:08:20.216Z,2.25
2023-05-08T10:10:49.084Z,2.08
2023-05-08T10:13:18.075Z,1.98
2023-05-08T10:15:53.637Z,2.08
2023-05-08T10:18:23.989Z,1.73
2023-05-08T10:20:54.922Z,2.17
2023-05-08T10:23:24.292Z,1.77
2023-05-08T10:25:57.891Z,2.30
2023-05-08T10:28:42.048Z,1.90
2023-05-08T10:31:14.651Z,1.40
2023-05-08T10:33:47.038Z,1.75
2023-05-08T10:36:16.251Z,2.10
2023-05-08T10:38:45.336Z,1.60
2023-05-08T10:41:15.050Z,1.90
2023-05-08T10:43:44.374Z,1.85
2023-05-08T10:48:57.986Z,1.80
2023-05-08T10:51:36.467Z,2.22
2023-05-08T10:54:10.314Z,1.80
2023-05-08T10:56:39.630Z,1.90
2023-05-08T10:59:08.614Z,1.70
2023-05-08T11:01:40.550Z,2.53
2023-05-08T11:04:21.648Z,1.92
2023-05-08T11:06:53.245Z,2.08
2023-05-08T11:09:25.185Z,1.50
2023-05-08T11:12:07.340Z,1.83
2023-05-08T11:14:39.558Z,1.80
2023-05-08T11:17:10.911Z,1.92
2023-05-08T11:19:40.112Z,2.03
2023-05-08T11:22:16.942Z,2.25
2023-05-08T11:24:51.111Z,2.15
2023-05-08T11:27:20.342Z,1.83
2023-05-08T11:30:34.987Z,1.70
2023-05-08T11:33:32.418Z,2.40
2023-05-08T11:36:02.568Z,2.25
2023-05-08T11:38:34.299Z,2.10
2023-05-08T11:41:05.467Z,2.42
2023-05-08T11:44:00.928Z,1.83
2023-05-08T11:46:40.704Z,1.98
2023-05-08T11:49:16.745Z,2.13
2023-05-08T11:51:47.769Z,2.25
2023-05-08T11:54:19.329Z,2.10
2023-05-08T11:56:49.335Z,1.92
2023-05-08T12:02:06.769Z,2.10
2023-05-08T12:04:47.178Z,1.90
2023-05-08T12:07:17.337Z,2.10
2023-05-08T12:14:45.303Z,2.22
2023-05-08T12:17:19.006Z,1.95
2023-05-08T12:19:49.824Z,2.00
2023-05-08T12:22:18.900Z,1.73
2023-05-08T12:24:48.168Z,2.20
2023-05-08T12:27:17.166Z,2.33
2023-05-08T12:29:46.862Z,2.00
2023-05-08T12:34:44.260Z,2.05
2023-05-08T12:37:25.054Z,2.10
2023-05-08T12:39:54.122Z,2.17
2023-05-08T12:42:23.106Z,1.80
2023-05-08T12:44:52.729Z,2.60
2023-05-08T12:47:21.974Z,2.30
2023-05-08T12:49:51.138Z,2.03
2023-05-08T12:52:22.748Z,2.05
2023-05-08T12:54:51.679Z,1.65
2023-05-08T12:57:22.763Z,2.00
2023-05-08T12:59:51.972Z,1.92
2023-05-08T13:02:23.864Z,1.93
2023-05-08T13:04:56.118Z,2.17
2023-05-08T13:07:33.081Z,1.85
2023-05-08T13:10:04.961Z,1.83
2023-05-08T13:12:34.087Z,1.67
2023-05-08T13:15:04.965Z,2.13
2023-05-08T13:17:34.144Z,1.63
2023-05-08T13:20:05.897Z,2.47
2023-05-08T13:22:36.289Z,1.52
2023-05-08T13:25:06.022Z,1.60
2023-05-08T13:27:35.160Z,1.95
2023-05-08T13:30:04.058Z,1.70
2023-05-08T13:32:33.264Z,1.60
2023-05-08T13:35:02.160Z,1.55
2023-05-08T13:37:30.710Z,1.88
2023-05-08T13:40:01.085Z,1.80
2023-05-08T13:42:30.198Z,1.73
2023-05-08T13:44:59.159Z,2.40
2023-05-08T13:47:28.169Z,1.77
2023-05-08T13:49:56.749Z,1.80
2023-05-08T13:52:25.736Z,2.08
2023-05-08T13:54:54.670Z,2.00
2023-05-08T13:57:25.133Z,3.25
2023-05-08T13:59:54.159Z,1.90
2023-05-08T14:02:23.342Z,1.92
2023-05-08T14:04:52.083Z,1.97
2023-05-08T14:07:21.132Z,2.45
2023-05-08T14:09:50.221Z,1.90
2023-05-08T14:12:19.104Z,2.13
2023-05-08T14:14:49.624Z,1.80
2023-05-08T14:17:22.547Z,1.88
2023-05-08T14:19:51.146Z,1.85
2023-05-08T14:22:20.197Z,2.00
2023-05-08T14:24:49.273Z,2.38
2023-05-08T14:27:18.118Z,2.07
2023-05-08T14:29:47.107Z,1.75
2023-05-08T14:32:17.570Z,2.55
2023-05-08T14:37:14.726Z,2.25
2023-05-08T14:39:43.869Z,1.95
2023-05-08T14:44:45.080Z,1.85
2023-05-08T14:47:14.046Z,2.30
2023-05-08T14:49:44.075Z,1.90
2023-05-08T14:52:13.076Z,1.60
2023-05-08T14:54:42.247Z,2.40
2023-05-08T14:57:11.337Z,2.40
2023-05-08T14:59:49.074Z,1.83
2023-05-08T15:02:21.347Z,2.10
2023-05-08T15:04:51.264Z,2.00
2023-05-08T15:07:20.104Z,1.90
2023-05-08T15:09:49.216Z,2.03
2023-05-08T15:12:18.205Z,2.27
2023-05-08T15:14:47.975Z,2.03
2023-05-08T15:17:16.843Z,2.03
2023-05-08T15:19:45.851Z,2.20
2023-05-08T15:22:17.908Z,2.17
2023-05-08T15:24:46.830Z,2.40
2023-05-08T15:27:15.890Z,2.40
2023-05-08T15:29:44.914Z,2.00
2023-05-08T15:32:14.017Z,2.35
2023-05-08T15:34:42.746Z,1.90
2023-05-08T15:37:11.822Z,2.13
2023-05-08T15:39:43.348Z,2.17
2023-05-08T15:42:12.434Z,2.38
2023-05-08T15:44:54.763Z,1.88
2023-05-08T15:47:24.303Z,2.08
2023-05-08T15:49:52.911Z,2.30
2023-05-08T15:52:22.855Z,2.08
2023-05-08T15:54:53.438Z,2.30
2023-05-08T15:57:22.624Z,1.73
2023-05-08T15:59:51.495Z,2.17
2023-05-08T16:02:20.526Z,1.95
2023-05-08T16:04:49.177Z,1.92
2023-05-08T16:07:18.118Z,1.93
2023-05-08T16:09:47.031Z,1.57
2023-05-08T16:12:19.841Z,1.52
2023-05-08T16:14:48.853Z,2.00
2023-05-08T16:17:17.916Z,1.87
2023-05-08T16:19:46.702Z,1.93
2023-05-08T16:22:15.764Z,2.13
2023-05-08T16:24:44.802Z,2.03
2023-05-08T16:27:13.838Z,1.93
2023-05-08T16:29:44.180Z,1.93
2023-05-08T16:32:13.392Z,2.38
2023-05-08T16:34:41.906Z,2.35
2023-05-08T16:37:11.215Z,2.58
2023-05-08T16:39:40.287Z,2.17
2023-05-08T16:42:09.902Z,1.93
2023-05-08T16:44:39.305Z,2.35
2023-05-08T16:47:10.260Z,2.00
2023-05-08T16:49:38.803Z,2.33
2023-05-08T16:52:07.850Z,2.42
2023-05-08T16:54:36.919Z,1.92
2023-05-08T16:57:06.563Z,2.28
2023-05-08T16:59:35.580Z,2.35
2023-05-08T17:02:04.653Z,2.35
2023-05-08T17:04:34.656Z,2.30
2023-05-08T17:07:05.819Z,2.05
2023-05-08T17:09:35.390Z,2.05
2023-05-08T17:12:04.758Z,2.63
2023-05-08T17:14:33.894Z,2.50
2023-05-08T17:17:02.917Z,3.30
2023-05-08T17:19:31.676Z,2.22
2023-05-08T17:22:02.190Z,2.75
2023-05-08T17:24:32.516Z,2.35
2023-05-08T17:27:01.813Z,2.65
2023-05-08T17:29:31.512Z,2.70
2023-05-08T17:32:00.645Z,2.97
2023-05-08T17:34:29.273Z,3.05
2023-05-08T17:36:58.279Z,3.03
2023-05-08T17:39:28.982Z,10.95
2023-05-08T17:41:58.058Z,3.00
2023-05-08T17:44:28.329Z,2.80
2023-05-08T17:46:57.127Z,3.38
2023-05-08T17:49:26.822Z,2.95
2023-05-08T17:51:55.866Z,3.30
2023-05-08T17:54:27.278Z,2.88
2023-05-08T17:56:57.900Z,2.80
2023-05-08T17:59:26.960Z,2.70
2023-05-08T18:01:55.850Z,3.22
2023-05-08T18:04:24.938Z,4.20
2023-05-08T18:06:54.131Z,3.97
2023-05-08T18:09:23.135Z,4.55
2023-05-08T18:11:52.154Z,3.63
2023-05-08T18:14:22.496Z,3.22
2023-05-08T18:16:51.009Z,3.35
2023-05-08T18:19:19.937Z,3.45
2023-05-08T18:21:48.958Z,2.95
2023-05-08T18:24:21.035Z,3.88
2023-05-08T18:26:52.361Z,3.72
2023-05-08T18:29:23.884Z,3.80
2023-05-08T18:31:54.770Z,5.80
2023-05-08T18:34:23.819Z,4.00
2023-05-08T18:36:54.941Z,4.20
2023-05-08T18:39:25.278Z,3.72
2023-05-08T18:41:54.360Z,3.97
2023-05-08T18:44:25.650Z,4.80
2023-05-08T18:46:54.555Z,5.25
2023-05-08T18:49:23.924Z,5.57
2023-05-08T18:51:52.853Z,4.97
2023-05-08T18:54:23.898Z,4.85
2023-05-08T18:56:52.988Z,5.03
2023-05-08T18:59:22.346Z,4.70
2023-05-08T19:01:52.546Z,4.32
2023-05-08T19:04:21.476Z,4.95
2023-05-08T19:06:50.710Z,4.47
2023-05-08T19:09:20.640Z,5.25
2023-05-08T19:11:49.824Z,5.20
2023-05-08T19:14:18.754Z,5.70
2023-05-08T19:16:47.292Z,6.03
2023-05-08T19:19:17.722Z,6.47
2023-05-08T19:24:19.823Z,4.93
2023-05-08T19:26:48.852Z,6.18
2023-05-08T19:29:17.811Z,6.82
2023-05-08T19:31:46.403Z,7.38
2023-05-08T19:34:15.523Z,7.40
2023-05-08T19:36:46.257Z,11.55
2023-05-08T19:39:15.582Z,15.05
2023-05-08T19:41:44.700Z,18.52
2023-05-08T19:44:13.867Z,14.90
2023-05-08T19:46:44.347Z,16.67
2023-05-08T19:49:14.508Z,18.67
2023-05-08T19:51:43.743Z,17.73
2023-05-08T19:54:14.146Z,17.45
2023-05-08T19:59:11.904Z,17.45
2023-05-08T20:01:40.538Z,18.63
2023-05-08T20:04:09.760Z,15.18
2023-05-08T20:06:39.393Z,15.93
2023-05-08T20:09:08.802Z,14.38
2023-05-08T20:11:39.268Z,13.73
2023-05-08T20:14:08.566Z,12.18
2023-05-08T20:16:37.379Z,14.40
2023-05-08T20:19:09.549Z,13.93
2023-05-08T20:21:42.161Z,12.93
2023-05-08T20:24:11.481Z,13.25
2023-05-08T20:26:41.911Z,12.52
2023-05-08T20:31:41.003Z,11.93
2023-05-08T20:36:38.841Z,11.18
2023-05-08T20:39:07.902Z,9.98
2023-05-08T20:41:37.561Z,11.95
2023-05-08T20:44:08.080Z,10.75
2023-05-08T20:46:37.078Z,11.63
2023-05-08T20:49:06.216Z,12.50
2023-05-08T20:51:36.416Z,12.07
2023-05-08T20:54:05.428Z,11.90
2023-05-08T20:56:35.889Z,12.38
2023-05-08T21:01:34.438Z,9.98
2023-05-08T21:06:32.233Z,8.13
2023-05-08T21:09:01.274Z,9.02
2023-05-08T21:11:30.244Z,8.55
2023-05-08T21:13:59.206Z,8.20
2023-05-08T21:16:27.881Z,9.50
2023-05-08T21:18:58.620Z,8.05
2023-05-08T21:21:28.097Z,8.82
2023-05-08T21:23:57.018Z,7.90
2023-05-08T21:26:26.010Z,7.55
2023-05-08T21:28:54.772Z,7.93
2023-05-08T21:31:23.875Z,8.57
2023-05-08T21:33:53.204Z,9.32
2023-05-08T21:36:23.778Z,8.48
2023-05-08T21:38:53.547Z,9.07
2023-05-08T21:41:22.943Z,7.88
2023-05-08T21:43:51.658Z,9.68
2023-05-08T21:46:20.610Z,7.72
2023-05-08T21:48:49.625Z,8.18
2023-05-08T21:51:18.596Z,7.85
2023-05-08T21:53:49.014Z,8.50
2023-05-08T21:58:46.246Z,7.00
2023-05-08T22:01:15.525Z,7.78
2023-05-08T22:03:44.629Z,7.55
2023-05-08T22:06:13.645Z,11.70
2023-05-08T22:08:42.604Z,9.35
2023-05-08T22:11:12.958Z,13.13
2023-05-08T22:13:41.636Z,12.85
2023-05-08T22:16:10.592Z,13.48
2023-05-08T22:18:39.639Z,13.10
2023-05-08T22:21:08.611Z,12.75
2023-05-08T22:23:37.607Z,12.50
2023-05-08T22:26:06.547Z,14.45
2023-05-08T22:28:36.587Z,10.93
2023-05-08T22:31:06.814Z,9.57
2023-05-08T22:33:35.913Z,10.57
2023-05-08T22:36:05.087Z,10.68
2023-05-08T22:38:34.086Z,9.38
2023-05-08T22:41:04.012Z,11.30
2023-05-08T22:43:33.439Z,11.13
2023-05-08T22:46:04.256Z,12.50
2023-05-08T22:48:33.464Z,10.85
2023-05-08T22:51:02.469Z,10.48
2023-05-08T22:53:31.416Z,11.90
2023-05-08T22:56:00.285Z,10.38
2023-05-08T22:58:29.375Z,9.73
2023-05-08T23:00:59.690Z,11.23
2023-05-08T23:05:58.990Z,11.07
2023-05-08T23:08:27.957Z,10.10
2023-05-08T23:10:56.890Z,10.18
2023-05-08T23:13:25.984Z,8.73
2023-05-08T23:15:55.036Z,8.43
2023-05-08T23:18:24.440Z,8.18
2023-05-08T23:20:54.880Z,9.50
2023-05-08T23:25:52.345Z,8.73
2023-05-08T23:28:21.254Z,8.85
2023-05-08T23:30:50.146Z,9.80
2023-05-08T23:33:19.873Z,9.45
2023-05-08T23:35:48.809Z,9.88
2023-05-08T23:38:19.106Z,10.20
2023-05-08T23:40:47.654Z,9.85
2023-05-08T23:43:16.506Z,10.07
2023-05-08T23:45:45.415Z,11.52
2023-05-08T23:48:14.411Z,10.82
2023-05-08T23:50:43.295Z,11.27
2023-05-08T23:53:12.410Z,10.77
2023-05-08T23:55:42.427Z,10.95
2023-05-08T23:58:11.434Z,11.68
